高雄國際航空站 - ATIS

METAR RCKH 201530Z 06004KT 7000 FEW015 SCT040 25/20 Q1018 NOSIG RMK A3007=

站台狀態:Online
最後更新:2018-10-20 23:45:02